Observations for CARDIFF-WALES ARPT, United Kingdom (EGFF)

EGFF 280520Z AUTO 36004KT 3400 RA OVC016/// //////TCU 15/15 Q0998   
EGFF 280450Z AUTO 32003KT 3600 RA OVC021/// //////TCU 15/15 Q0999 RERA  
EGFF 280420Z AUTO 33004KT 2600 +RA SCT024/// BKN029/// //////TCU 15/15 Q0999
EGFF 280350Z AUTO 33004KT 2600 RA SCT001/// SCT023/// BKN030/// //////TCU 15/15 Q0999   
EGFF 280320Z AUTO 32005KT 2200 RA SCT001/// BKN022/// OVC030/// //////TCU 15/15 Q0999 RERA  
EGFF 280250Z AUTO 32005KT 3000 RA FEW002/// BKN023/// OVC036/// //////TCU 15/15 Q0999   
EGFF 280220Z AUTO 31006KT 3900 RA FEW003/// BKN018/// BKN023/// //////TCU 15/15 Q1000   
EGFF 280150Z AUTO 31006KT 5000 -RA OVC019/// //////TCU 15/15 Q1000  
EGFF 280120Z AUTO 32005KT 7000 -RA BKN022 OVC030 15/14 Q1000
EGFF 280050Z AUTO 33006KT 9000 -RA OVC023 15/15 Q1001   
EGFF 280020Z AUTO 32006KT 9999 -RA SCT025 BKN030 OVC048 15/14 Q1001 
EGFF 272350Z AUTO 32006KT 9999 BKN039 15/14 Q1001   
EGFF 272320Z AUTO 32005KT 9999 -RA FEW040/// //////TCU 16/14 Q1001  
EGFF 272250Z AUTO 31004KT 9999 BKN041 16/14 Q1002   
EGFF 272220Z AUTO 32003KT 9999 SCT041 16/14 Q1002   
EGFF 272150Z AUTO 31004KT 9999 NCD 16/14 Q1002  
EGFF 272120Z AUTO 33004KT 9999 NCD 16/14 Q1002  
EGFF 272050Z AUTO 32005KT 9999 NCD 16/14 Q1002  
EGFF 272020Z AUTO 31006KT 9999 NCD 16/14 Q1002  
EGFF 271950Z AUTO 32005KT 9999 NCD 17/14 Q1002  
EGFF 271920Z AUTO 31004KT 9999 NCD 17/14 Q1003  
EGFF 271850Z AUTO 28004KT 9999 FEW024 18/14 Q1003   
EGFF 271820Z AUTO VRB02KT 9999 NCD 18/14 Q1003  
EGFF 271750Z AUTO 16003KT 9999 //////TCU 19/14 Q1003
EGFF 271720Z AUTO 14004KT 9999 NCD 19/14 Q1003  
EGFF 271650Z AUTO 15005KT 120V190 9999 NCD 19/14 Q1003  
EGFF 271620Z AUTO 15003KT 9999 NCD 19/14 Q1004  
EGFF 271550Z AUTO 17004KT 9999 FEW032 19/14 Q1004   
EGFF 271520Z AUTO 16005KT 120V180 9999 NCD 19/14 Q1004  
EGFF 271450Z 15004KT 9999 BKN036 20/14 Q1004
EGFF 271420Z VRB03KT 9999 SCT036 19/13 Q1005
EGFF 271350Z VRB03KT 9999 FEW034 19/13 Q1005
EGFF 271320Z AUTO 16004KT 120V190 9999 NCD 19/13 Q1005  
EGFF 271250Z AUTO 15005KT 9999 NCD 18/13 Q1005  
EGFF 271220Z AUTO 14006KT 110V180 9999 NCD 18/13 Q1006  
EGFF 271150Z AUTO 11007KT 080V150 9999 BKN044 18/12 Q1006   
EGFF 271120Z AUTO 12006KT 9999 OVC041 17/12 Q1006   
EGFF 271050Z AUTO 13006KT 9999 FEW027 OVC033 17/12 Q1006
EGFF 271020Z AUTO 13006KT 9999 BKN026 OVC041 17/12 Q1007
EGFF 270950Z AUTO 13007KT 9999 OVC027 17/12 Q1007   
EGFF 270920Z AUTO 11006KT 9999 OVC027 17/12 Q1007   
EGFF 270850Z AUTO 11006KT 9999 BKN028 OVC043 17/12 Q1007
EGFF 270820Z AUTO 11005KT 9999 OVC031 16/12 Q1007   
EGFF 270750Z AUTO 12004KT 9999 BKN032 OVC041 16/12 Q1008
EGFF 270720Z AUTO 13006KT 9999 OVC035 16/12 Q1008   
EGFF 270650Z AUTO 12006KT 9999 OVC036 16/13 Q1008   
EGFF 270620Z AUTO 13005KT 9999 OVC035 16/12 Q1008   
EGFF 270550Z AUTO 12006KT 9999 OVC036 16/12 Q1008   
EGFF 270520Z AUTO 14006KT 9999 OVC035 16/12 Q1008   
EGFF 270450Z AUTO 15006KT 9999 OVC033 16/12 Q1008